createdAt,value
2018-12-24T00:00:43.912Z,2.65
2018-12-24T00:03:48.242Z,2.66
2018-12-24T00:06:52.540Z,2.77
2018-12-24T00:09:57.139Z,2.68
2018-12-24T00:13:01.686Z,2.67
2018-12-24T00:16:06.004Z,2.59
2018-12-24T00:19:12.388Z,2.72
2018-12-24T00:22:16.890Z,2.72
2018-12-24T00:25:21.423Z,2.61
2018-12-24T00:28:25.758Z,2.70
2018-12-24T00:31:30.493Z,2.68
2018-12-24T00:34:34.794Z,2.64
2018-12-24T00:37:39.339Z,2.56
2018-12-24T00:40:43.683Z,2.82
2018-12-24T00:43:47.966Z,2.71
2018-12-24T00:46:52.229Z,2.69
2018-12-24T00:49:56.581Z,2.64
2018-12-24T00:53:00.923Z,2.81
2018-12-24T00:56:07.442Z,2.86
2018-12-24T00:59:11.819Z,2.78
2018-12-24T01:02:16.167Z,2.97
2018-12-24T01:05:20.453Z,2.98
2018-12-24T01:08:24.738Z,2.90
2018-12-24T01:11:29.095Z,2.79
2018-12-24T01:14:33.380Z,2.76
2018-12-24T01:17:37.681Z,2.73
2018-12-24T01:20:42.019Z,2.90
2018-12-24T01:23:46.300Z,2.77
2018-12-24T01:26:50.633Z,2.86
2018-12-24T01:29:54.890Z,3.10
2018-12-24T01:32:59.171Z,2.82
2018-12-24T01:36:03.461Z,2.88
2018-12-24T01:39:08.323Z,2.84
2018-12-24T01:42:12.669Z,2.78
2018-12-24T01:45:17.211Z,2.69
2018-12-24T01:48:21.472Z,2.77
2018-12-24T01:51:26.815Z,2.68
2018-12-24T01:54:31.111Z,2.76
2018-12-24T01:57:35.381Z,2.68
2018-12-24T02:00:39.727Z,2.68
2018-12-24T02:03:44.073Z,2.72
2018-12-24T02:06:48.339Z,2.72
2018-12-24T02:09:52.602Z,2.71
2018-12-24T02:12:56.871Z,2.73
2018-12-24T02:16:01.150Z,2.75
2018-12-24T02:19:05.475Z,2.68
2018-12-24T02:22:12.905Z,2.78
2018-12-24T02:25:51.553Z,2.70
2018-12-24T02:28:55.388Z,2.66
2018-12-24T02:31:59.239Z,2.71
2018-12-24T02:35:03.221Z,2.72
2018-12-24T02:38:07.073Z,2.77
2018-12-24T02:41:12.311Z,2.78
2018-12-24T02:44:16.178Z,2.66
2018-12-24T02:47:20.086Z,2.71
2018-12-24T02:50:23.956Z,2.68
2018-12-24T02:53:27.872Z,2.57
2018-12-24T02:56:31.771Z,2.63
2018-12-24T02:59:35.699Z,2.57
2018-12-24T03:02:39.524Z,2.52
2018-12-24T03:05:43.386Z,2.51
2018-12-24T03:08:47.230Z,2.63
2018-12-24T03:11:51.082Z,2.54
2018-12-24T03:14:55.006Z,2.41
2018-12-24T03:17:58.839Z,2.37
2018-12-24T03:21:02.681Z,2.51
2018-12-24T03:24:06.535Z,2.43
2018-12-24T03:27:10.373Z,2.32
2018-12-24T03:30:14.216Z,2.22
2018-12-24T03:33:18.055Z,2.20
2018-12-24T03:36:21.895Z,2.08
2018-12-24T03:39:25.726Z,1.99
2018-12-24T03:42:29.567Z,1.98
2018-12-24T03:45:33.444Z,1.94
2018-12-24T03:48:37.288Z,1.86
2018-12-24T03:51:41.123Z,1.77
2018-12-24T03:54:44.972Z,1.70
2018-12-24T03:57:48.847Z,1.60
2018-12-24T04:00:52.685Z,1.57
2018-12-24T04:03:56.576Z,1.45
2018-12-24T04:07:00.407Z,1.40
2018-12-24T04:10:04.393Z,1.36
2018-12-24T04:13:08.224Z,1.32
2018-12-24T04:16:12.144Z,1.28
2018-12-24T04:19:15.997Z,1.26
2018-12-24T04:22:20.011Z,1.21
2018-12-24T04:25:23.930Z,1.19
2018-12-24T04:28:27.930Z,1.15
2018-12-24T04:31:31.781Z,1.13
2018-12-24T04:34:35.655Z,1.13
2018-12-24T04:37:39.945Z,1.11
2018-12-24T04:40:45.727Z,1.17
2018-12-24T04:43:49.665Z,1.23
2018-12-24T04:46:53.515Z,1.35
2018-12-24T04:49:57.355Z,1.51
2018-12-24T04:53:01.220Z,1.55
2018-12-24T04:56:05.074Z,1.65
2018-12-24T04:59:08.950Z,1.79
2018-12-24T05:02:12.849Z,1.79
2018-12-24T05:05:16.668Z,1.84
2018-12-24T05:08:21.787Z,1.81
2018-12-24T05:11:25.636Z,1.89
2018-12-24T05:14:29.473Z,1.96
2018-12-24T05:17:33.319Z,2.04
2018-12-24T05:20:37.144Z,1.89
2018-12-24T05:23:40.989Z,1.98
2018-12-24T05:26:44.865Z,1.88
2018-12-24T05:29:48.811Z,1.88
2018-12-24T05:32:52.616Z,1.86
2018-12-24T05:35:56.566Z,1.84
2018-12-24T05:39:00.410Z,1.84
2018-12-24T05:42:04.433Z,1.76
2018-12-24T05:45:08.266Z,1.73
2018-12-24T05:48:12.101Z,1.67
2018-12-24T05:51:15.998Z,1.59
2018-12-24T05:54:19.867Z,1.58
2018-12-24T05:57:23.703Z,1.58
2018-12-24T06:00:30.843Z,1.52
2018-12-24T06:03:34.702Z,1.48
2018-12-24T06:06:38.710Z,1.49
2018-12-24T06:09:42.550Z,1.47
2018-12-24T06:12:48.250Z,1.44
2018-12-24T06:15:52.189Z,1.49
2018-12-24T06:18:56.035Z,1.57
2018-12-24T06:22:00.031Z,1.58
2018-12-24T06:25:03.960Z,1.60
2018-12-24T06:28:07.806Z,1.62
2018-12-24T06:31:11.723Z,1.64
2018-12-24T06:34:15.558Z,1.70
2018-12-24T06:37:19.506Z,1.75
2018-12-24T06:40:23.328Z,1.78
2018-12-24T06:43:27.208Z,1.79
2018-12-24T06:46:31.069Z,1.85
2018-12-24T06:49:35.079Z,1.85
2018-12-24T06:52:40.506Z,1.70
2018-12-24T06:55:44.350Z,1.73
2018-12-24T06:58:48.314Z,1.72
2018-12-24T07:01:52.146Z,1.73
2018-12-24T07:04:56.031Z,1.62
2018-12-24T07:08:00.196Z,1.58
2018-12-24T07:11:04.142Z,1.55
2018-12-24T07:14:15.238Z,1.53
2018-12-24T07:17:13.682Z,1.57
2018-12-24T07:20:17.608Z,1.53
2018-12-24T07:23:21.508Z,1.46
2018-12-24T07:26:25.438Z,1.39
2018-12-24T07:29:29.410Z,1.38
2018-12-24T07:32:33.340Z,1.38
2018-12-24T07:35:37.267Z,1.41
2018-12-24T07:38:41.157Z,1.45
2018-12-24T07:41:45.570Z,1.57
2018-12-24T07:44:49.440Z,1.68
2018-12-24T07:47:53.312Z,1.67
2018-12-24T07:50:57.195Z,1.73
2018-12-24T07:54:03.434Z,1.76
2018-12-24T07:57:07.276Z,1.69
2018-12-24T08:00:11.115Z,1.68
2018-12-24T08:03:16.239Z,1.72
2018-12-24T08:06:20.075Z,1.75
2018-12-24T08:09:24.050Z,1.75
2018-12-24T08:12:27.920Z,1.81
2018-12-24T08:15:31.920Z,1.89
2018-12-24T08:18:39.381Z,1.89
2018-12-24T08:21:43.316Z,1.87
2018-12-24T08:24:48.231Z,1.86
2018-12-24T08:27:52.160Z,1.67
2018-12-24T08:30:56.000Z,1.61
2018-12-24T08:33:59.934Z,1.67
2018-12-24T08:37:06.211Z,1.67
2018-12-24T08:40:10.122Z,1.65
2018-12-24T08:43:13.972Z,1.68
2018-12-24T08:46:17.807Z,1.80
2018-12-24T08:49:21.687Z,1.89
2018-12-24T08:52:25.630Z,2.03
2018-12-24T08:55:29.627Z,2.05
2018-12-24T08:58:33.474Z,2.01
2018-12-24T09:01:37.405Z,2.03
2018-12-24T09:04:41.283Z,2.08
2018-12-24T09:07:45.107Z,2.08
2018-12-24T09:10:51.088Z,2.12
2018-12-24T09:13:54.990Z,2.18
2018-12-24T09:16:58.910Z,2.18
2018-12-24T09:20:03.311Z,2.20
2018-12-24T09:23:07.304Z,2.26
2018-12-24T09:26:11.264Z,2.21
2018-12-24T09:29:15.117Z,2.18
2018-12-24T09:32:19.048Z,2.21
2018-12-24T09:35:23.066Z,2.27
2018-12-24T09:38:26.922Z,2.34
2018-12-24T09:41:34.047Z,2.39
2018-12-24T09:44:37.953Z,2.46
2018-12-24T09:47:41.798Z,2.48
2018-12-24T09:50:45.624Z,2.46
2018-12-24T09:53:49.495Z,2.53
2018-12-24T09:56:53.526Z,2.63
2018-12-24T09:59:57.580Z,2.67
2018-12-24T10:03:18.677Z,2.65
2018-12-24T10:06:30.337Z,2.67
2018-12-24T10:09:34.262Z,2.74
2018-12-24T10:12:38.788Z,2.77
2018-12-24T10:15:44.766Z,2.73
2018-12-24T10:18:50.865Z,2.76
2018-12-24T10:21:55.235Z,2.86
2018-12-24T10:24:59.112Z,3.05
2018-12-24T10:28:04.002Z,2.94
2018-12-24T10:31:07.936Z,2.86
2018-12-24T10:34:12.899Z,2.92
2018-12-24T10:37:16.908Z,3.10
2018-12-24T10:40:20.833Z,3.28
2018-12-24T10:43:24.761Z,3.28
2018-12-24T10:46:28.811Z,3.18
2018-12-24T10:49:32.817Z,3.24
2018-12-24T10:52:36.682Z,3.19
2018-12-24T10:55:40.538Z,3.15
2018-12-24T10:58:44.469Z,3.18
2018-12-24T11:01:48.325Z,3.20
2018-12-24T11:04:52.210Z,3.26
2018-12-24T11:07:56.079Z,3.43
2018-12-24T11:10:59.957Z,3.50
2018-12-24T11:14:03.941Z,3.51
2018-12-24T11:17:08.356Z,3.60
2018-12-24T11:20:12.357Z,3.59
2018-12-24T11:23:16.302Z,3.53
2018-12-24T11:26:20.232Z,3.63
2018-12-24T11:29:24.152Z,3.59
2018-12-24T11:32:28.081Z,3.81
2018-12-24T11:35:32.023Z,3.72
2018-12-24T11:38:35.881Z,3.75
2018-12-24T11:41:39.824Z,3.78
2018-12-24T11:44:44.248Z,3.86
2018-12-24T11:47:48.111Z,3.98
2018-12-24T11:50:52.366Z,4.08
2018-12-24T11:53:56.279Z,4.03
2018-12-24T11:57:00.135Z,4.03
2018-12-24T12:00:04.636Z,4.11
2018-12-24T12:03:10.516Z,4.17
2018-12-24T12:06:19.714Z,4.24
2018-12-24T12:09:26.212Z,4.19
2018-12-24T12:12:30.136Z,4.21
2018-12-24T12:15:42.354Z,4.27
2018-12-24T12:18:39.851Z,4.37
2018-12-24T12:21:44.678Z,4.45
2018-12-24T12:24:48.524Z,4.46
2018-12-24T12:27:52.416Z,4.48
2018-12-24T12:30:56.436Z,4.52
2018-12-24T12:34:00.574Z,4.50
2018-12-24T12:37:04.599Z,4.49
2018-12-24T12:40:08.602Z,4.49
2018-12-24T12:43:12.458Z,4.59
2018-12-24T12:46:25.358Z,4.71
2018-12-24T12:49:29.219Z,4.84
2018-12-24T12:52:33.089Z,5.09
2018-12-24T12:55:36.999Z,5.05
2018-12-24T12:58:40.898Z,5.13
2018-12-24T13:01:44.811Z,5.09
2018-12-24T13:04:48.681Z,5.01
2018-12-24T13:07:52.618Z,4.96
2018-12-24T13:10:56.494Z,4.99
2018-12-24T13:14:00.603Z,5.09
2018-12-24T13:17:04.531Z,5.21
2018-12-24T13:20:08.574Z,5.27
2018-12-24T13:23:12.452Z,5.49
2018-12-24T13:26:16.479Z,5.49
2018-12-24T13:29:20.362Z,5.53
2018-12-24T13:32:24.210Z,5.59
2018-12-24T13:35:28.144Z,5.69
2018-12-24T13:38:32.252Z,5.74
2018-12-24T13:41:36.222Z,5.76
2018-12-24T13:44:40.240Z,5.88
2018-12-24T13:47:44.149Z,5.70
2018-12-24T13:54:09.860Z,5.82
2018-12-24T13:57:13.718Z,5.82
2018-12-24T14:00:17.662Z,5.83
2018-12-24T14:03:21.572Z,5.81
2018-12-24T14:06:25.433Z,5.79
2018-12-24T14:09:29.274Z,5.70
2018-12-24T14:12:33.188Z,5.66
2018-12-24T14:15:37.040Z,5.65
2018-12-24T14:18:40.887Z,5.57
2018-12-24T14:21:44.741Z,5.53
2018-12-24T14:24:48.644Z,5.50
2018-12-24T14:27:52.495Z,5.44
2018-12-24T14:30:56.416Z,5.41
2018-12-24T14:34:00.335Z,5.39
2018-12-24T14:37:06.723Z,5.38
2018-12-24T14:40:10.563Z,5.34
2018-12-24T14:43:14.563Z,5.33
2018-12-24T14:46:25.624Z,5.32
2018-12-24T14:49:23.991Z,5.26
2018-12-24T14:52:27.842Z,5.26
2018-12-24T14:55:31.853Z,5.27
2018-12-24T14:58:35.812Z,5.17
2018-12-24T15:01:39.704Z,5.11
2018-12-24T15:04:43.565Z,5.14
2018-12-24T15:07:47.410Z,5.08
2018-12-24T15:10:51.318Z,5.09
2018-12-24T15:13:55.171Z,5.09
2018-12-24T15:16:59.103Z,5.13
2018-12-24T15:20:03.113Z,5.01
2018-12-24T15:23:06.972Z,4.99
2018-12-24T15:26:13.748Z,4.96
2018-12-24T15:29:17.703Z,4.95
2018-12-24T15:32:21.542Z,4.88
2018-12-24T15:35:25.673Z,4.83
2018-12-24T15:38:29.538Z,4.77
2018-12-24T15:41:33.397Z,4.72
2018-12-24T15:44:37.813Z,4.78
2018-12-24T15:47:41.668Z,4.80
2018-12-24T15:50:45.598Z,4.76
2018-12-24T15:53:49.427Z,4.72
2018-12-24T15:56:53.356Z,4.75
2018-12-24T15:59:57.204Z,4.70
2018-12-24T16:03:01.064Z,4.69
2018-12-24T16:06:04.992Z,4.71
2018-12-24T16:09:10.952Z,4.72
2018-12-24T16:12:14.882Z,4.74
2018-12-24T16:15:18.729Z,4.66
2018-12-24T16:18:22.580Z,4.70
2018-12-24T16:21:26.462Z,4.66
2018-12-24T16:24:32.176Z,4.68
2018-12-24T16:27:38.594Z,4.69
2018-12-24T16:30:42.439Z,4.63
2018-12-24T16:33:46.278Z,4.68
2018-12-24T16:36:50.117Z,4.65
2018-12-24T16:39:53.966Z,4.64
2018-12-24T16:43:01.390Z,4.69
2018-12-24T16:46:05.286Z,4.73
2018-12-24T16:49:09.147Z,4.76
2018-12-24T16:52:13.010Z,4.76
2018-12-24T16:55:16.880Z,4.77
2018-12-24T16:58:20.793Z,4.76
2018-12-24T17:01:24.646Z,4.73
2018-12-24T17:04:31.795Z,4.73
2018-12-24T17:07:35.655Z,4.68
2018-12-24T17:10:39.497Z,4.72
2018-12-24T17:13:43.509Z,4.75
2018-12-24T17:16:47.455Z,4.76
2018-12-24T17:19:51.398Z,4.70
2018-12-24T17:22:55.263Z,4.64
2018-12-24T17:26:01.510Z,4.61
2018-12-24T17:29:07.981Z,4.57
2018-12-24T17:32:11.965Z,4.53
2018-12-24T17:35:15.886Z,4.52
2018-12-24T17:38:19.830Z,4.56
2018-12-24T17:41:23.752Z,4.53
2018-12-24T17:44:29.682Z,4.54
2018-12-24T17:47:33.540Z,4.53
2018-12-24T17:50:39.460Z,4.47
2018-12-24T17:53:43.300Z,4.49
2018-12-24T17:56:47.137Z,4.45
2018-12-24T17:59:54.613Z,4.46
2018-12-24T18:02:58.453Z,4.63
2018-12-24T18:06:03.884Z,4.61
2018-12-24T18:09:08.518Z,4.63
2018-12-24T18:12:12.417Z,4.60
2018-12-24T18:15:16.261Z,4.64
2018-12-24T18:18:20.292Z,4.65
2018-12-24T18:21:24.238Z,4.68
2018-12-24T18:24:28.087Z,4.66
2018-12-24T18:27:31.967Z,4.70
2018-12-24T18:30:35.844Z,4.70
2018-12-24T18:33:41.579Z,4.71
2018-12-24T18:36:45.424Z,4.78
2018-12-24T18:39:50.449Z,4.85
2018-12-24T18:42:54.292Z,4.86
2018-12-24T18:45:58.211Z,4.91
2018-12-24T18:49:02.061Z,4.89
2018-12-24T18:52:05.899Z,4.86
2018-12-24T18:55:09.726Z,4.83
2018-12-24T18:58:14.097Z,4.85
2018-12-24T19:01:18.059Z,4.90
2018-12-24T19:04:21.923Z,4.91
2018-12-24T19:07:25.772Z,4.95
2018-12-24T19:10:29.675Z,4.92
2018-12-24T19:13:33.594Z,4.89
2018-12-24T19:16:37.614Z,4.91
2018-12-24T19:19:44.833Z,4.99
2018-12-24T19:22:50.560Z,5.08
2018-12-24T19:25:54.398Z,5.03
2018-12-24T19:28:58.258Z,5.04
2018-12-24T19:32:02.180Z,5.11
2018-12-24T19:35:06.109Z,5.12
2018-12-24T19:38:10.070Z,5.11
2018-12-24T19:41:16.856Z,5.08
2018-12-24T19:44:20.809Z,5.07
2018-12-24T19:47:24.617Z,5.10
2018-12-24T19:50:28.473Z,5.06
2018-12-24T19:53:32.345Z,5.04
2018-12-24T19:56:36.184Z,5.06
2018-12-24T19:59:40.104Z,5.09
2018-12-24T20:02:43.958Z,5.07
2018-12-24T20:05:49.511Z,5.05
2018-12-24T20:08:53.440Z,5.09
2018-12-24T20:12:00.853Z,5.09
2018-12-24T20:15:04.875Z,5.14
2018-12-24T20:18:15.449Z,5.13
2018-12-24T20:21:14.414Z,5.14
2018-12-24T20:24:18.271Z,5.13
2018-12-24T20:27:22.138Z,5.16
2018-12-24T20:30:26.030Z,5.14
2018-12-24T20:33:31.608Z,5.09
2018-12-24T20:36:35.455Z,5.09
2018-12-24T20:39:39.517Z,5.11
2018-12-24T20:42:43.378Z,5.13
2018-12-24T20:45:49.717Z,5.14
2018-12-24T20:48:53.618Z,5.15
2018-12-24T20:51:58.070Z,5.11
2018-12-24T20:55:01.934Z,5.15
2018-12-24T20:58:05.870Z,5.14
2018-12-24T21:01:09.813Z,5.19
2018-12-24T21:04:13.678Z,5.19
2018-12-24T21:07:17.541Z,5.20
2018-12-24T21:10:21.401Z,5.17
2018-12-24T21:13:25.409Z,5.18
2018-12-24T21:16:29.444Z,5.19
2018-12-24T21:19:33.456Z,5.16
2018-12-24T21:22:47.553Z,5.21
2018-12-24T21:25:51.759Z,5.25
2018-12-24T21:28:55.719Z,5.23
2018-12-24T21:32:09.799Z,5.23
2018-12-24T21:35:27.931Z,5.27
2018-12-24T21:38:42.870Z,5.30
2018-12-24T21:41:49.598Z,5.32
2018-12-24T21:44:56.195Z,5.38
2018-12-24T21:48:00.132Z,5.39
2018-12-24T21:51:04.077Z,5.38
2018-12-24T21:54:15.396Z,5.42
2018-12-24T21:57:30.548Z,5.42
2018-12-24T22:00:39.955Z,5.39
2018-12-24T22:03:48.290Z,5.41
2018-12-24T22:06:52.292Z,5.41
2018-12-24T22:09:56.239Z,5.48
2018-12-24T22:13:00.083Z,5.58
2018-12-24T22:16:04.076Z,5.66
2018-12-24T22:19:08.018Z,5.71
2018-12-24T22:22:11.987Z,5.70
2018-12-24T22:25:17.501Z,5.69
2018-12-24T22:28:21.351Z,5.72
2018-12-24T22:31:25.203Z,5.69
2018-12-24T22:34:29.133Z,5.74
2018-12-24T22:37:33.043Z,5.73
2018-12-24T22:40:36.958Z,5.73
2018-12-24T22:43:43.060Z,5.69
2018-12-24T22:46:46.985Z,5.66
2018-12-24T22:49:53.020Z,5.67
2018-12-24T22:52:56.944Z,5.68
2018-12-24T22:59:18.093Z,5.69
2018-12-24T23:02:22.226Z,5.74
2018-12-24T23:05:26.069Z,5.78
2018-12-24T23:08:29.902Z,5.87
2018-12-24T23:11:33.854Z,5.91
2018-12-24T23:14:37.747Z,5.97
2018-12-24T23:17:41.725Z,6.02
2018-12-24T23:20:45.679Z,6.06
2018-12-24T23:23:49.681Z,6.04
2018-12-24T23:26:58.763Z,5.96
2018-12-24T23:30:02.645Z,5.92
2018-12-24T23:33:06.533Z,5.96
2018-12-24T23:36:10.380Z,6.06
2018-12-24T23:39:14.262Z,6.05
2018-12-24T23:42:18.208Z,6.07
2018-12-24T23:45:23.362Z,6.17
2018-12-24T23:48:27.293Z,6.18
2018-12-24T23:51:31.225Z,6.19
2018-12-24T23:54:35.100Z,6.26
2018-12-24T23:57:40.885Z,6.29
